createdAt,value
2022-07-28T00:00:13.558Z,3.52
2022-07-28T00:01:14.021Z,0.40
2022-07-28T00:02:13.816Z,2.52
2022-07-28T00:03:14.169Z,2.72
2022-07-28T00:04:14.531Z,2.96
2022-07-28T00:05:13.252Z,1.84
2022-07-28T00:06:13.804Z,1.40
2022-07-28T00:07:14.395Z,2.28
2022-07-28T00:08:14.102Z,2.96
2022-07-28T00:09:13.359Z,1.36
2022-07-28T00:10:13.536Z,0.08
2022-07-28T00:11:13.955Z,2.56
2022-07-28T00:12:13.143Z,1.36
2022-07-28T00:13:13.776Z,0.44
2022-07-28T00:14:14.408Z,1.36
2022-07-28T00:15:13.899Z,1.28
2022-07-28T00:16:13.441Z,2.28
2022-07-28T00:17:13.663Z,0.72
2022-07-28T00:18:13.609Z,1.72
2022-07-28T00:19:14.058Z,0.80
2022-07-28T00:20:13.576Z,0.08
2022-07-28T00:21:13.906Z,2.32
2022-07-28T00:22:18.690Z,0.48
2022-07-28T00:23:14.081Z,2.08
2022-07-28T00:24:15.368Z,2.48
2022-07-28T00:25:13.953Z,0.80
2022-07-28T00:26:13.390Z,1.04
2022-07-28T00:27:13.521Z,1.56
2022-07-28T00:28:13.638Z,1.84
2022-07-28T00:29:13.966Z,1.20
2022-07-28T00:30:12.850Z,2.32
2022-07-28T00:31:14.296Z,0.36
2022-07-28T00:32:13.965Z,1.92
2022-07-28T00:33:13.479Z,2.80
2022-07-28T00:34:13.882Z,4.64
2022-07-28T00:35:14.945Z,3.32
2022-07-28T00:36:13.781Z,1.12
2022-07-28T00:37:14.746Z,1.52
2022-07-28T00:38:13.172Z,0.56
2022-07-28T00:39:13.015Z,1.84
2022-07-28T00:40:13.446Z,3.72
2022-07-28T00:41:13.393Z,0.28
2022-07-28T00:42:13.368Z,1.88
2022-07-28T00:43:14.831Z,2.72
2022-07-28T00:44:14.413Z,1.40
2022-07-28T00:45:18.890Z,1.44
2022-07-28T00:46:12.826Z,0.20
2022-07-28T00:47:14.086Z,1.44
2022-07-28T00:48:13.179Z,1.80
2022-07-28T00:49:13.421Z,0.56
2022-07-28T00:50:13.502Z,2.00
2022-07-28T00:51:13.529Z,1.16
2022-07-28T00:52:13.748Z,2.20
2022-07-28T00:53:13.654Z,2.64
2022-07-28T00:54:14.155Z,1.16
2022-07-28T00:55:13.372Z,1.44
2022-07-28T00:56:13.500Z,1.16
2022-07-28T00:57:13.422Z,1.64
2022-07-28T00:58:13.453Z,2.36
2022-07-28T00:59:13.845Z,3.00
2022-07-28T01:00:14.073Z,0.52
2022-07-28T01:01:13.340Z,2.64
2022-07-28T01:02:13.299Z,1.44
2022-07-28T01:03:13.456Z,3.08
2022-07-28T01:04:14.002Z,0.44
2022-07-28T01:05:13.364Z,1.60
2022-07-28T01:06:13.483Z,2.80
2022-07-28T01:07:14.922Z,2.20
2022-07-28T01:08:12.859Z,2.44
2022-07-28T01:09:13.781Z,3.00
2022-07-28T01:10:13.644Z,2.00
2022-07-28T01:11:13.658Z,2.40
2022-07-28T01:12:13.553Z,5.40
2022-07-28T01:13:13.688Z,3.04
2022-07-28T01:14:13.988Z,4.56
2022-07-28T01:15:13.331Z,1.88
2022-07-28T01:16:15.242Z,2.24
2022-07-28T01:17:13.247Z,1.68
2022-07-28T01:18:13.325Z,2.84
2022-07-28T01:19:13.344Z,3.44
2022-07-28T01:20:13.547Z,2.36
2022-07-28T01:21:13.458Z,0.48
2022-07-28T01:22:13.389Z,4.28
2022-07-28T01:23:14.486Z,3.92
2022-07-28T01:24:14.077Z,3.84
2022-07-28T01:25:13.337Z,4.04
2022-07-28T01:26:13.237Z,1.76
2022-07-28T01:27:13.175Z,5.68
2022-07-28T01:28:13.300Z,4.04
2022-07-28T01:29:13.325Z,2.88
2022-07-28T01:30:13.966Z,0.88
2022-07-28T01:31:12.942Z,2.28
2022-07-28T01:32:12.928Z,5.08
2022-07-28T01:33:12.906Z,3.36
2022-07-28T01:34:13.461Z,2.68
2022-07-28T01:35:13.580Z,1.92
2022-07-28T01:36:13.698Z,2.44
2022-07-28T01:37:13.780Z,2.80
2022-07-28T01:38:13.789Z,0.68
2022-07-28T01:39:13.774Z,1.52
2022-07-28T01:40:13.946Z,1.60
2022-07-28T01:41:13.137Z,2.84
2022-07-28T01:42:13.460Z,1.52
2022-07-28T01:43:13.455Z,2.24
2022-07-28T01:44:14.885Z,3.08
2022-07-28T01:45:13.217Z,1.76
2022-07-28T01:46:13.221Z,3.16
2022-07-28T01:47:13.544Z,0.16
2022-07-28T01:48:13.579Z,2.24
2022-07-28T01:49:13.726Z,2.20
2022-07-28T01:50:14.057Z,1.36
2022-07-28T01:51:13.517Z,4.80
2022-07-28T01:52:13.460Z,2.76
2022-07-28T01:53:14.556Z,3.04
2022-07-28T01:54:13.774Z,2.52
2022-07-28T01:55:12.893Z,1.76
2022-07-28T01:56:13.120Z,5.04
2022-07-28T01:57:13.130Z,3.28
2022-07-28T01:58:13.234Z,2.84
2022-07-28T01:59:13.345Z,1.72
2022-07-28T02:00:13.339Z,4.24
2022-07-28T02:01:13.339Z,1.20
2022-07-28T02:02:13.319Z,1.64
2022-07-28T02:03:13.331Z,3.52
2022-07-28T02:04:13.804Z,2.52
2022-07-28T02:05:13.611Z,3.40
2022-07-28T02:06:12.944Z,0.56
2022-07-28T02:07:12.984Z,3.92
2022-07-28T02:08:12.821Z,2.76
2022-07-28T02:09:14.127Z,5.20
2022-07-28T02:10:13.001Z,3.60
2022-07-28T02:11:12.998Z,2.64
2022-07-28T02:12:13.056Z,2.24
2022-07-28T02:13:18.206Z,1.32
2022-07-28T02:14:13.592Z,3.40
2022-07-28T02:15:13.956Z,1.92
2022-07-28T02:16:13.228Z,2.80
2022-07-28T02:17:13.492Z,2.44
2022-07-28T02:18:13.635Z,1.48
2022-07-28T02:19:13.140Z,1.12
2022-07-28T02:20:13.239Z,0.80
2022-07-28T02:21:13.377Z,5.32
2022-07-28T02:22:13.628Z,2.32
2022-07-28T02:23:13.649Z,2.48
2022-07-28T02:24:14.100Z,0.84
2022-07-28T02:25:13.451Z,0.48
2022-07-28T02:26:13.392Z,3.24
2022-07-28T02:27:13.476Z,1.20
2022-07-28T02:28:13.429Z,0.00
2022-07-28T02:29:33.319Z,1.44
2022-07-28T02:30:13.482Z,2.72
2022-07-28T02:31:13.556Z,5.32
2022-07-28T02:32:27.198Z,2.92
2022-07-28T02:33:13.580Z,4.52
2022-07-28T02:34:14.290Z,2.24
2022-07-28T02:35:13.774Z,2.24
2022-07-28T02:36:14.162Z,1.60
2022-07-28T02:37:13.272Z,0.00
2022-07-28T02:38:13.176Z,0.00
2022-07-28T02:39:13.192Z,1.76
2022-07-28T02:40:13.296Z,0.00
2022-07-28T02:41:13.357Z,0.00
2022-07-28T02:42:13.379Z,0.00
2022-07-28T02:43:13.414Z,0.00
2022-07-28T02:44:14.039Z,2.20
2022-07-28T02:45:13.535Z,0.24
2022-07-28T02:46:13.608Z,1.84
2022-07-28T02:47:13.769Z,1.84
2022-07-28T02:48:14.179Z,0.32
2022-07-28T02:49:13.151Z,0.00
2022-07-28T02:50:13.166Z,0.48
2022-07-28T02:51:13.652Z,0.00
2022-07-28T02:52:13.661Z,2.48
2022-07-28T02:53:14.961Z,0.56
2022-07-28T02:54:13.935Z,3.08
2022-07-28T02:55:13.321Z,1.12
2022-07-28T02:56:13.776Z,0.08
2022-07-28T02:57:13.709Z,0.24
2022-07-28T02:58:13.623Z,0.00
2022-07-28T02:59:14.050Z,1.32
2022-07-28T03:00:12.981Z,3.80
2022-07-28T03:01:13.077Z,6.64
2022-07-28T03:02:13.172Z,7.00
2022-07-28T03:03:13.311Z,7.80
2022-07-28T03:04:13.479Z,4.60
2022-07-28T03:05:13.870Z,2.52
2022-07-28T03:06:12.885Z,3.16
2022-07-28T03:07:14.423Z,0.24
2022-07-28T03:08:13.481Z,1.04
2022-07-28T03:09:14.644Z,2.96
2022-07-28T03:10:13.840Z,0.60
2022-07-28T03:11:13.235Z,0.52
2022-07-28T03:12:13.341Z,0.52
2022-07-28T03:13:13.703Z,0.44
2022-07-28T03:14:14.183Z,1.44
2022-07-28T03:15:13.510Z,1.48
2022-07-28T03:16:13.598Z,0.68
2022-07-28T03:17:13.746Z,0.44
2022-07-28T03:18:14.122Z,1.52
2022-07-28T03:19:13.106Z,1.16
2022-07-28T03:20:13.019Z,0.92
2022-07-28T03:21:13.059Z,1.32
2022-07-28T03:22:13.057Z,0.12
2022-07-28T03:23:13.036Z,0.56
2022-07-28T03:24:13.159Z,0.16
2022-07-28T03:25:13.391Z,0.00
2022-07-28T03:26:13.390Z,0.12
2022-07-28T03:27:13.598Z,0.48
2022-07-28T03:28:13.523Z,0.20
2022-07-28T03:29:14.604Z,0.00
2022-07-28T03:30:13.508Z,0.00
2022-07-28T03:31:13.809Z,0.00
2022-07-28T03:32:13.852Z,0.00
2022-07-28T03:33:13.856Z,0.12
2022-07-28T03:34:14.199Z,1.96
2022-07-28T03:35:13.685Z,0.00
2022-07-28T03:36:13.948Z,0.56
2022-07-28T03:37:13.081Z,0.04
2022-07-28T03:38:13.142Z,0.60
2022-07-28T03:39:13.310Z,3.48
2022-07-28T03:40:13.535Z,0.36
2022-07-28T03:41:14.594Z,1.28
2022-07-28T03:42:13.844Z,1.28
2022-07-28T03:43:14.101Z,0.24
2022-07-28T03:44:14.135Z,0.20
2022-07-28T03:45:13.154Z,0.48
2022-07-28T03:46:13.590Z,0.00
2022-07-28T03:47:13.856Z,0.00
2022-07-28T03:48:14.029Z,0.36
2022-07-28T03:49:13.516Z,1.76
2022-07-28T03:50:13.597Z,0.84
2022-07-28T03:51:13.699Z,0.00
2022-07-28T03:52:13.853Z,0.52
2022-07-28T03:53:13.919Z,0.00
2022-07-28T03:54:13.292Z,0.08
2022-07-28T03:55:13.721Z,0.28
2022-07-28T03:56:13.812Z,0.32
2022-07-28T03:57:13.980Z,0.08
2022-07-28T03:58:13.363Z,0.20
2022-07-28T03:59:13.346Z,0.08
2022-07-28T04:00:13.316Z,0.08
2022-07-28T04:01:13.495Z,0.00
2022-07-28T04:02:13.639Z,0.72
2022-07-28T04:03:36.382Z,1.40
2022-07-28T04:04:13.545Z,0.96
2022-07-28T04:05:13.678Z,0.36
2022-07-28T04:06:14.160Z,0.48
2022-07-28T04:07:18.178Z,2.28
2022-07-28T04:08:13.232Z,1.56
2022-07-28T04:09:13.269Z,1.24
2022-07-28T04:10:13.416Z,1.28
2022-07-28T04:11:13.348Z,0.28
2022-07-28T04:12:13.531Z,0.48
2022-07-28T04:13:13.591Z,1.88
2022-07-28T04:14:16.802Z,1.56
2022-07-28T04:15:13.252Z,2.16
2022-07-28T04:16:13.466Z,2.40
2022-07-28T04:17:13.869Z,1.68
2022-07-28T04:18:12.930Z,2.40
2022-07-28T04:19:12.917Z,1.32
2022-07-28T04:20:13.059Z,1.72
2022-07-28T04:21:13.282Z,2.44
2022-07-28T04:22:13.607Z,3.20
2022-07-28T04:23:13.500Z,3.56
2022-07-28T04:24:13.611Z,3.84
2022-07-28T04:25:14.108Z,2.68
2022-07-28T04:26:13.404Z,1.88
2022-07-28T04:27:13.257Z,1.88
2022-07-28T04:28:13.205Z,1.84
2022-07-28T04:29:13.217Z,2.88
2022-07-28T04:30:13.263Z,0.52
2022-07-28T04:31:13.360Z,0.44
2022-07-28T04:32:13.437Z,1.28
2022-07-28T04:33:13.413Z,1.68
2022-07-28T04:34:13.866Z,1.36
2022-07-28T04:35:17.125Z,0.92
2022-07-28T04:36:13.774Z,0.72
2022-07-28T04:37:13.822Z,2.04
2022-07-28T04:38:13.853Z,2.44
2022-07-28T04:39:14.025Z,5.48
2022-07-28T04:40:13.247Z,3.28
2022-07-28T04:41:13.349Z,3.76
2022-07-28T04:42:13.347Z,1.92
2022-07-28T04:43:13.462Z,0.24
2022-07-28T04:44:13.783Z,3.04
2022-07-28T04:45:12.937Z,2.16
2022-07-28T04:46:15.164Z,0.56
2022-07-28T04:47:13.623Z,0.04
2022-07-28T04:48:13.598Z,1.36
2022-07-28T04:49:13.666Z,2.28
2022-07-28T04:50:13.706Z,0.80
2022-07-28T04:51:13.661Z,3.52
2022-07-28T04:52:13.591Z,0.96
2022-07-28T04:53:13.586Z,0.16
2022-07-28T04:54:13.846Z,0.36
2022-07-28T04:55:13.497Z,0.20
2022-07-28T04:56:13.693Z,0.08
2022-07-28T04:57:13.722Z,0.64
2022-07-28T04:58:13.555Z,0.56
2022-07-28T04:59:13.948Z,0.08
2022-07-28T05:00:13.319Z,0.08
2022-07-28T05:01:13.254Z,1.60
2022-07-28T05:02:13.159Z,1.12
2022-07-28T05:03:13.073Z,1.08
2022-07-28T05:04:13.278Z,0.32
2022-07-28T05:05:13.772Z,0.00
2022-07-28T05:06:14.286Z,1.12
2022-07-28T05:07:13.548Z,0.72
2022-07-28T05:08:13.621Z,0.56
2022-07-28T05:09:13.762Z,0.00
2022-07-28T05:10:13.725Z,0.40
2022-07-28T05:11:13.879Z,2.44
2022-07-28T05:12:14.203Z,2.20
2022-07-28T05:13:13.286Z,1.36
2022-07-28T05:14:13.733Z,1.96
2022-07-28T05:15:13.197Z,1.48
2022-07-28T05:16:13.149Z,0.44
2022-07-28T05:17:13.051Z,0.36
2022-07-28T05:18:13.392Z,0.80
2022-07-28T05:19:13.493Z,0.60
2022-07-28T05:20:13.875Z,1.04
2022-07-28T05:21:13.940Z,1.84
2022-07-28T05:22:14.566Z,2.32
2022-07-28T05:23:13.599Z,1.56
2022-07-28T05:24:13.840Z,2.16
2022-07-28T05:25:13.172Z,2.92
2022-07-28T05:26:13.937Z,2.32
2022-07-28T05:27:13.079Z,3.72
2022-07-28T05:28:12.943Z,6.84
2022-07-28T05:29:15.191Z,5.00
2022-07-28T05:30:13.101Z,4.48
2022-07-28T05:31:13.137Z,2.64
2022-07-28T05:32:16.417Z,2.56
2022-07-28T05:33:13.136Z,2.76
2022-07-28T05:34:13.564Z,4.76
2022-07-28T05:35:13.191Z,5.76
2022-07-28T05:36:13.184Z,5.32
2022-07-28T05:37:13.556Z,3.44
2022-07-28T05:38:13.759Z,2.84
2022-07-28T05:39:13.722Z,4.36
2022-07-28T05:40:13.608Z,5.80
2022-07-28T05:41:13.594Z,3.16
2022-07-28T05:42:13.935Z,4.96
2022-07-28T05:43:17.892Z,4.92
2022-07-28T05:44:13.084Z,3.04
2022-07-28T05:45:16.176Z,2.12
2022-07-28T05:46:13.283Z,4.40
2022-07-28T05:47:13.299Z,1.72
2022-07-28T05:48:13.170Z,1.76
2022-07-28T05:49:13.257Z,2.96
2022-07-28T05:50:13.270Z,3.28
2022-07-28T05:51:13.280Z,2.36
2022-07-28T05:52:13.172Z,0.84
2022-07-28T05:53:13.171Z,0.40
2022-07-28T05:54:13.317Z,6.36
2022-07-28T05:55:13.668Z,5.80
2022-07-28T05:56:13.878Z,3.60
2022-07-28T05:57:15.409Z,4.60
2022-07-28T05:58:13.542Z,2.88
2022-07-28T05:59:14.014Z,4.52
2022-07-28T06:00:12.950Z,4.32
2022-07-28T06:01:13.469Z,1.72
2022-07-28T06:02:13.550Z,4.00
2022-07-28T06:03:13.754Z,3.16
2022-07-28T06:04:27.147Z,3.64
2022-07-28T06:05:13.004Z,2.32
2022-07-28T06:06:17.897Z,1.72
2022-07-28T06:07:12.840Z,3.80
2022-07-28T06:08:13.764Z,2.28
2022-07-28T06:09:13.965Z,4.56
2022-07-28T06:10:13.067Z,4.52
2022-07-28T06:11:23.262Z,4.64
2022-07-28T06:12:13.624Z,3.60
2022-07-28T06:13:13.673Z,1.60
2022-07-28T06:14:14.045Z,3.20
2022-07-28T06:15:14.189Z,4.28
2022-07-28T06:16:18.145Z,5.12
2022-07-28T06:17:13.253Z,2.16
2022-07-28T06:18:18.298Z,0.56
2022-07-28T06:19:18.416Z,2.72
2022-07-28T06:20:18.373Z,2.36
2022-07-28T06:21:13.551Z,2.36
2022-07-28T06:22:13.662Z,0.84
2022-07-28T06:23:13.886Z,3.28
2022-07-28T06:24:14.253Z,2.96
2022-07-28T06:25:13.614Z,2.32
2022-07-28T06:26:18.984Z,4.40
2022-07-28T06:27:12.835Z,2.37
2022-07-28T06:28:14.058Z,5.32
2022-07-28T06:29:13.363Z,3.76
2022-07-28T06:30:13.729Z,5.08
2022-07-28T06:31:13.958Z,4.44
2022-07-28T06:32:19.341Z,3.60
2022-07-28T06:33:17.289Z,6.29
2022-07-28T06:34:15.527Z,5.66
2022-07-28T06:35:13.834Z,2.44
2022-07-28T06:36:18.992Z,5.76
2022-07-28T06:37:13.022Z,8.56
2022-07-28T06:38:18.323Z,5.92
2022-07-28T06:39:13.749Z,7.92
2022-07-28T06:40:13.683Z,6.68
2022-07-28T06:41:13.981Z,6.60
2022-07-28T06:42:13.362Z,11.56
2022-07-28T06:43:14.290Z,9.08
2022-07-28T06:44:13.815Z,7.56
2022-07-28T06:45:21.351Z,13.28
2022-07-28T06:46:14.896Z,13.88
2022-07-28T06:47:14.231Z,10.76
2022-07-28T06:48:13.337Z,10.56
2022-07-28T06:49:13.819Z,4.08
2022-07-28T06:50:25.917Z,6.64
2022-07-28T06:51:13.055Z,5.40
2022-07-28T06:52:13.342Z,4.52
2022-07-28T06:53:13.280Z,10.00
2022-07-28T06:54:19.205Z,5.16
2022-07-28T06:55:13.703Z,11.72
2022-07-28T06:56:15.774Z,3.12
2022-07-28T06:57:13.042Z,2.92
2022-07-28T06:58:13.211Z,2.56
2022-07-28T06:59:14.906Z,4.08
2022-07-28T07:00:13.136Z,6.40
2022-07-28T07:01:13.310Z,4.13
2022-07-28T07:02:18.810Z,6.92
2022-07-28T07:03:13.993Z,7.76
2022-07-28T07:04:13.198Z,6.72
2022-07-28T07:05:13.503Z,6.72
2022-07-28T07:06:13.507Z,4.12
2022-07-28T07:07:17.018Z,4.40
2022-07-28T07:08:18.665Z,5.96
2022-07-28T07:09:13.630Z,6.96
2022-07-28T07:10:13.635Z,6.08
2022-07-28T07:11:13.537Z,5.40
2022-07-28T07:12:13.818Z,1.68
2022-07-28T07:13:13.929Z,6.08
2022-07-28T07:14:13.943Z,6.00
2022-07-28T07:15:13.156Z,11.44
2022-07-28T07:16:13.112Z,8.36
2022-07-28T07:17:18.426Z,9.52
2022-07-28T07:18:13.978Z,6.52
2022-07-28T07:19:15.914Z,7.48
2022-07-28T07:20:18.550Z,7.24
2022-07-28T07:21:13.967Z,6.64
2022-07-28T07:22:13.523Z,5.64
2022-07-28T07:23:13.615Z,3.54
2022-07-28T07:24:13.986Z,4.98
2022-07-28T07:25:13.251Z,8.88
2022-07-28T07:26:13.421Z,7.80
2022-07-28T07:27:13.311Z,5.92
2022-07-28T07:28:13.225Z,6.68
2022-07-28T07:29:13.217Z,10.04
2022-07-28T07:30:13.459Z,12.36
2022-07-28T07:31:13.738Z,13.28
2022-07-28T07:32:13.728Z,7.00
2022-07-28T07:33:13.572Z,7.60
2022-07-28T07:34:14.352Z,11.00
2022-07-28T07:35:14.603Z,8.80
2022-07-28T07:36:13.771Z,5.20
2022-07-28T07:37:14.223Z,9.16
2022-07-28T07:38:13.684Z,9.68
2022-07-28T07:39:13.736Z,5.68
2022-07-28T07:40:18.747Z,8.72
2022-07-28T07:41:13.848Z,6.24
2022-07-28T07:42:13.490Z,7.16
2022-07-28T07:43:14.683Z,4.24
2022-07-28T07:44:14.188Z,5.68
2022-07-28T07:45:13.637Z,6.20
2022-07-28T07:46:13.854Z,10.48
2022-07-28T07:47:13.343Z,8.80
2022-07-28T07:48:13.517Z,6.84
2022-07-28T07:49:13.478Z,8.44
2022-07-28T07:50:24.800Z,14.60
2022-07-28T07:51:15.717Z,8.36
2022-07-28T07:52:13.050Z,16.56
2022-07-28T07:53:18.580Z,10.52
2022-07-28T07:54:13.912Z,7.04
2022-07-28T07:55:18.255Z,12.36
2022-07-28T07:56:13.245Z,13.36
2022-07-28T07:57:13.396Z,10.16
2022-07-28T07:58:13.618Z,11.48
2022-07-28T07:59:13.669Z,10.96
2022-07-28T08:00:28.493Z,7.12
2022-07-28T08:01:13.328Z,2.12
2022-07-28T08:02:13.578Z,4.96
2022-07-28T08:03:14.105Z,10.04
2022-07-28T08:04:15.114Z,8.96
2022-07-28T08:05:13.431Z,7.48
2022-07-28T08:06:13.400Z,3.60
2022-07-28T08:07:12.905Z,6.00
2022-07-28T08:08:13.403Z,5.28
2022-07-28T08:09:13.560Z,9.96
2022-07-28T08:10:13.873Z,10.28
2022-07-28T08:11:13.809Z,5.68
2022-07-28T08:12:13.821Z,10.36
2022-07-28T08:13:13.790Z,3.72
2022-07-28T08:14:14.285Z,4.28
2022-07-28T08:15:13.457Z,4.32
2022-07-28T08:16:13.614Z,5.52
2022-07-28T08:17:14.058Z,12.88
2022-07-28T08:18:13.207Z,3.72
2022-07-28T08:19:14.477Z,7.32
2022-07-28T08:20:13.455Z,4.88
2022-07-28T08:21:13.309Z,3.36
2022-07-28T08:22:13.538Z,4.92
2022-07-28T08:23:13.883Z,2.80
2022-07-28T08:24:13.430Z,7.24
2022-07-28T08:25:12.886Z,8.60
2022-07-28T08:26:14.360Z,4.52
2022-07-28T08:27:13.747Z,7.92
2022-07-28T08:28:13.689Z,7.65
2022-07-28T08:29:13.678Z,3.48
2022-07-28T08:30:13.703Z,2.48
2022-07-28T08:31:14.027Z,5.24
2022-07-28T08:32:13.296Z,5.52
2022-07-28T08:33:13.570Z,5.80
2022-07-28T08:34:30.957Z,9.00
2022-07-28T08:35:32.286Z,3.00
2022-07-28T08:36:13.309Z,3.72
2022-07-28T08:37:13.646Z,3.96
2022-07-28T08:38:13.770Z,2.12
2022-07-28T08:39:14.677Z,3.12
2022-07-28T08:40:13.762Z,3.48
2022-07-28T08:41:18.819Z,2.92
2022-07-28T08:42:14.083Z,4.40
2022-07-28T08:43:13.019Z,8.36
2022-07-28T08:44:13.725Z,10.52
2022-07-28T08:45:13.031Z,7.36
2022-07-28T08:46:13.384Z,9.40
2022-07-28T08:47:13.433Z,5.80
2022-07-28T08:48:13.518Z,2.72
2022-07-28T08:49:14.793Z,2.64
2022-07-28T08:50:13.043Z,4.44
2022-07-28T08:51:13.061Z,5.40
2022-07-28T08:52:13.030Z,2.84
2022-07-28T08:53:13.160Z,4.88
2022-07-28T08:54:13.592Z,4.60
2022-07-28T08:55:19.162Z,7.00
2022-07-28T08:56:13.825Z,3.16
2022-07-28T08:57:13.794Z,2.16
2022-07-28T08:58:13.834Z,1.48
2022-07-28T08:59:14.321Z,0.20
2022-07-28T09:00:13.217Z,7.36
2022-07-28T09:01:13.627Z,17.20
2022-07-28T09:02:13.767Z,11.68
2022-07-28T09:03:13.764Z,7.36
2022-07-28T09:04:14.609Z,12.40
2022-07-28T09:05:12.894Z,4.88
2022-07-28T09:06:13.165Z,7.64
2022-07-28T09:07:14.668Z,3.00
2022-07-28T09:08:18.656Z,3.16
2022-07-28T09:09:13.661Z,4.48
2022-07-28T09:10:13.667Z,6.48
2022-07-28T09:11:14.091Z,5.00
2022-07-28T09:12:13.196Z,7.04
2022-07-28T09:13:13.680Z,9.08
2022-07-28T09:14:14.241Z,4.20
2022-07-28T09:15:13.895Z,4.96
2022-07-28T09:16:13.155Z,3.80
2022-07-28T09:17:13.332Z,4.44
2022-07-28T09:18:13.473Z,7.72
2022-07-28T09:19:13.827Z,4.20
2022-07-28T09:20:13.756Z,2.00
2022-07-28T09:21:14.304Z,1.68
2022-07-28T09:22:13.244Z,5.64
2022-07-28T09:23:43.308Z,6.04
2022-07-28T09:24:14.476Z,6.48
2022-07-28T09:25:13.774Z,9.64
2022-07-28T09:26:13.711Z,7.68
2022-07-28T09:27:13.771Z,7.80
2022-07-28T09:28:13.886Z,10.66
2022-07-28T09:29:13.052Z,10.90
2022-07-28T09:30:14.004Z,14.80
2022-07-28T09:31:13.201Z,6.76
2022-07-28T09:32:14.515Z,3.96
2022-07-28T09:33:42.060Z,7.88
2022-07-28T09:34:14.231Z,3.48
2022-07-28T09:35:13.812Z,2.84
2022-07-28T09:36:13.668Z,5.60
2022-07-28T09:37:13.891Z,6.68
2022-07-28T09:38:14.535Z,12.00
2022-07-28T09:39:14.756Z,12.44
2022-07-28T09:40:13.905Z,4.96
2022-07-28T09:41:13.294Z,6.20
2022-07-28T09:42:13.199Z,8.40
2022-07-28T09:43:13.265Z,9.16
2022-07-28T09:44:13.809Z,7.32
2022-07-28T09:45:22.797Z,3.20
2022-07-28T09:46:13.411Z,11.00
2022-07-28T09:47:13.674Z,2.52
2022-07-28T09:48:13.768Z,5.16
2022-07-28T09:49:12.962Z,5.32
2022-07-28T09:50:13.129Z,4.44
2022-07-28T09:51:13.470Z,6.08
2022-07-28T09:52:13.765Z,4.52
2022-07-28T09:53:14.706Z,2.60
2022-07-28T09:54:14.554Z,7.60
2022-07-28T09:55:12.914Z,8.04
2022-07-28T09:56:13.347Z,1.96
2022-07-28T09:57:13.680Z,3.16
2022-07-28T09:58:14.167Z,8.08
2022-07-28T09:59:15.050Z,13.76
2022-07-28T10:00:13.063Z,17.72
2022-07-28T10:01:13.967Z,19.56
2022-07-28T10:02:13.145Z,9.48
2022-07-28T10:03:13.635Z,10.84
2022-07-28T10:04:13.867Z,15.16
2022-07-28T10:05:14.172Z,6.84
2022-07-28T10:06:13.206Z,3.80
2022-07-28T10:07:13.128Z,4.72
2022-07-28T10:08:13.172Z,7.72
2022-07-28T10:09:13.222Z,5.84
2022-07-28T10:10:14.346Z,7.24
2022-07-28T10:11:13.310Z,13.40
2022-07-28T10:12:13.278Z,11.60
2022-07-28T10:13:13.420Z,8.96
2022-07-28T10:14:14.104Z,6.28
2022-07-28T10:15:13.775Z,4.04
2022-07-28T10:16:13.995Z,6.32
2022-07-28T10:17:13.000Z,6.04
2022-07-28T10:18:13.773Z,5.60
2022-07-28T10:19:19.250Z,7.84
2022-07-28T10:20:14.448Z,8.96
2022-07-28T10:21:13.577Z,7.20
2022-07-28T10:22:13.714Z,2.44
2022-07-28T10:23:13.633Z,3.80
2022-07-28T10:24:14.035Z,5.80
2022-07-28T10:25:13.426Z,5.80
2022-07-28T10:26:13.428Z,10.32
2022-07-28T10:27:13.531Z,5.60
2022-07-28T10:28:13.850Z,8.32
2022-07-28T10:29:13.757Z,4.04
2022-07-28T10:30:13.674Z,3.32
2022-07-28T10:31:14.204Z,9.20
2022-07-28T10:32:13.362Z,7.08
2022-07-28T10:33:13.736Z,5.16
2022-07-28T10:34:16.306Z,9.40
2022-07-28T10:35:13.473Z,8.04
2022-07-28T10:36:15.138Z,1.92
2022-07-28T10:37:13.189Z,7.64
2022-07-28T10:38:14.094Z,12.60
2022-07-28T10:39:13.198Z,2.68
2022-07-28T10:40:13.170Z,7.08
2022-07-28T10:41:13.145Z,5.84
2022-07-28T10:42:13.043Z,8.36
2022-07-28T10:43:14.878Z,5.52
2022-07-28T10:44:14.707Z,8.32
2022-07-28T10:45:12.876Z,3.44
2022-07-28T10:46:16.371Z,2.84
2022-07-28T10:47:18.503Z,9.40
2022-07-28T10:48:13.496Z,6.32
2022-07-28T10:49:13.552Z,11.64
2022-07-28T10:50:13.817Z,20.80
2022-07-28T10:51:13.726Z,15.56
2022-07-28T10:52:37.383Z,17.80
2022-07-28T10:53:13.634Z,27.40
2022-07-28T10:54:17.714Z,25.24
2022-07-28T10:55:13.002Z,11.56
2022-07-28T10:56:13.886Z,22.40
2022-07-28T10:57:12.893Z,16.52
2022-07-28T10:58:12.904Z,39.60
2022-07-28T10:59:13.365Z,19.60
2022-07-28T11:00:15.565Z,17.92
2022-07-28T11:01:32.583Z,7.52
2022-07-28T11:02:14.673Z,12.40
2022-07-28T11:03:14.380Z,13.44
2022-07-28T11:04:13.798Z,11.24
2022-07-28T11:05:12.895Z,19.28
2022-07-28T11:06:14.813Z,11.24
2022-07-28T11:07:14.048Z,21.68
2022-07-28T11:08:13.123Z,23.96
2022-07-28T11:09:13.051Z,18.48
2022-07-28T11:10:13.132Z,29.04
2022-07-28T11:11:13.180Z,24.16
2022-07-28T11:12:13.305Z,20.52
2022-07-28T11:13:14.359Z,20.76
2022-07-28T11:14:14.041Z,16.72
2022-07-28T11:15:18.481Z,11.48
2022-07-28T11:16:13.470Z,12.88
2022-07-28T11:17:13.752Z,19.36
2022-07-28T11:18:15.234Z,13.88
2022-07-28T11:19:40.472Z,4.20
2022-07-28T11:20:24.794Z,9.48
2022-07-28T11:21:16.351Z,14.20
2022-07-28T11:22:13.938Z,20.20
2022-07-28T11:23:12.900Z,23.16
2022-07-28T11:24:17.865Z,10.76
2022-07-28T11:25:18.750Z,26.84
2022-07-28T11:26:14.311Z,14.76
2022-07-28T11:27:15.025Z,24.28
2022-07-28T11:28:14.462Z,28.32
2022-07-28T11:29:15.311Z,21.92
2022-07-28T11:30:14.883Z,8.72
2022-07-28T11:31:13.968Z,19.16
2022-07-28T11:32:13.883Z,23.40
2022-07-28T11:33:13.790Z,8.80
2022-07-28T11:34:15.567Z,17.24
2022-07-28T11:35:15.338Z,12.96
2022-07-28T11:36:14.755Z,12.04
2022-07-28T11:37:15.541Z,14.16
2022-07-28T11:38:15.922Z,10.88
2022-07-28T11:39:17.665Z,11.68
2022-07-28T11:40:15.331Z,40.12
2022-07-28T11:41:15.218Z,23.20
2022-07-28T11:42:14.808Z,5.48
2022-07-28T11:43:17.274Z,1.88
2022-07-28T11:44:15.077Z,9.20
2022-07-28T11:45:15.153Z,19.40
2022-07-28T11:46:14.157Z,14.84
2022-07-28T11:47:13.685Z,22.40
2022-07-28T11:48:14.155Z,31.92
2022-07-28T11:49:14.950Z,5.72
2022-07-28T11:50:18.340Z,4.16
2022-07-28T11:51:19.204Z,14.04
2022-07-28T11:52:13.710Z,17.72
2022-07-28T11:53:14.785Z,32.32
2022-07-28T11:54:18.785Z,31.96
2022-07-28T11:55:15.336Z,30.64
2022-07-28T11:56:15.047Z,24.28
2022-07-28T11:57:18.284Z,14.72
2022-07-28T11:58:14.777Z,2.16
2022-07-28T11:59:17.279Z,1.24
2022-07-28T12:00:14.366Z,12.64
2022-07-28T12:01:17.791Z,16.72
2022-07-28T12:02:14.910Z,30.56
2022-07-28T12:03:14.449Z,37.04
2022-07-28T12:04:16.937Z,36.76
2022-07-28T12:05:15.964Z,13.24
2022-07-28T12:06:14.677Z,10.48
2022-07-28T12:07:14.772Z,8.24
2022-07-28T12:08:14.394Z,10.76
2022-07-28T12:09:13.744Z,23.40
2022-07-28T12:10:25.955Z,26.52
2022-07-28T12:11:15.776Z,46.20
2022-07-28T12:12:14.152Z,27.84
2022-07-28T12:13:15.181Z,16.00
2022-07-28T12:14:15.153Z,12.84
2022-07-28T12:15:14.996Z,24.64
2022-07-28T12:16:14.388Z,4.28
2022-07-28T12:17:14.699Z,5.92
2022-07-28T12:18:13.261Z,17.68
2022-07-28T12:19:17.094Z,35.28
2022-07-28T12:20:15.568Z,19.80
2022-07-28T12:21:15.144Z,19.44
2022-07-28T12:22:15.580Z,25.60
2022-07-28T12:23:17.622Z,12.00
2022-07-28T12:24:15.581Z,15.04
2022-07-28T12:25:14.027Z,15.72
2022-07-28T12:26:18.030Z,19.92
2022-07-28T12:27:15.339Z,27.96
2022-07-28T12:28:14.828Z,12.92
2022-07-28T12:29:15.220Z,17.60
2022-07-28T12:30:19.011Z,12.60
2022-07-28T12:31:18.102Z,10.48
2022-07-28T12:32:14.924Z,6.52
2022-07-28T12:33:17.402Z,3.96
2022-07-28T12:34:15.658Z,3.56
2022-07-28T12:35:17.353Z,6.60
2022-07-28T12:36:19.096Z,15.20
2022-07-28T12:37:17.774Z,23.68
2022-07-28T12:38:16.676Z,37.20
2022-07-28T12:39:14.787Z,19.80
2022-07-28T12:40:16.706Z,11.88
2022-07-28T12:41:18.130Z,5.76
2022-07-28T12:42:16.755Z,7.20
2022-07-28T12:43:15.123Z,12.38
2022-07-28T12:44:17.943Z,6.04
2022-07-28T12:45:17.128Z,2.88
2022-07-28T12:46:15.859Z,14.40
2022-07-28T12:47:18.898Z,14.56
2022-07-28T12:48:17.653Z,33.76
2022-07-28T12:49:20.174Z,32.40
2022-07-28T12:50:18.129Z,18.88
2022-07-28T12:51:16.638Z,22.72
2022-07-28T12:52:18.251Z,22.00
2022-07-28T12:53:18.155Z,24.96
2022-07-28T12:54:15.812Z,25.32
2022-07-28T12:55:18.075Z,35.64
2022-07-28T12:56:19.353Z,23.04
2022-07-28T12:57:19.362Z,19.00
2022-07-28T12:58:18.285Z,12.12
2022-07-28T12:59:18.251Z,8.08
2022-07-28T13:00:18.289Z,13.92
2022-07-28T13:01:19.388Z,38.08
2022-07-28T13:02:18.931Z,42.04
2022-07-28T13:03:15.444Z,37.64
2022-07-28T13:04:17.350Z,37.28
2022-07-28T13:05:19.784Z,48.68
2022-07-28T13:06:18.288Z,1.16
2022-07-28T13:07:17.175Z,7.76
2022-07-28T13:08:18.989Z,11.80
2022-07-28T13:09:19.840Z,27.68
2022-07-28T13:10:17.189Z,13.96
2022-07-28T13:11:42.770Z,6.32
2022-07-28T13:12:23.228Z,14.20
2022-07-28T13:13:16.510Z,8.92